KBGD/BGD METAR and TAF weather

Enter ICAO airport designator
Station Type Date Time Source
KBGD METAR 2021/03/05 19:51 UTC NOAA

KBGD 051951Z AUTO 03019G23KT 10SM BKN035 BKN045 OVC055 14/03 A3024 RMK AO2 PK WND 04027/1919 SLP227 T01390033


Station Type Date Time Source
KBGD Decoded METAR 2021/03/05 19:51 UTC NOAA

BORGER HUTCHINSON CO AIRPORT , TX, United States (KBGD) 35-42N 101-24W 927M
Mar 05, 2021 - 02:51 PM EST / 2021.03.05 1951 UTC
Wind: from the NNE (030 degrees) at 22 MPH (19 KT) gusting to 26 MPH (23 KT):0
Visibility: 10 mile(s):0
Sky conditions: overcast
Temperature: 57.0 F (13.9 C)
Dew Point: 37.9 F (3.3 C)
Relative Humidity: 48%
Pressure (altimeter): 30.24 in. Hg (1024 hPa)
ob: KBGD 051951Z AUTO 03019G23KT 10SM BKN035 BKN045 OVC055 14/03 A3024 RMK AO2 PK WND 04027/1919 SLP227 T01390033
cycle: 20

Station Type Date Time Source
KBGD TAF UTC NOAA

Error!

Example: see airport list